Main page
METAR-TAF:

METAR-TAF

Airports :

Morlaix – Ploujean Airport

Morlaix, France

latitude: 48-36N, longitude: 3-49W, elevation: 84 m

Current weather observation

The report was made 3 hours and 23 minutes ago, at 20:00 UTC
Wind 7 kt from the East
Temperature 16°C
Humidity 63%
Pressure 997 hPa
Visibility 10 km or more
no clouds below 1500 m and no cumulonimbus

METAR: LFRU 222000Z AUTO 10007KT CAVOK 16/09 Q0997

Time: 01:23 (23:23 UTC)


TAF: missing

Weather observations and forecasts of more than 4000 airports (METAR and TAF reports).

The available stations are represented by yellow and red dots on the map.

Hover mouse over dot to see the name of the station.

Then click to see weather observations and forecasts.

To change the map : click on the green buttons with a black cross to zoom in, on the green button with a dash to zoom out, or on the green arrows for adjacent maps.


METAR-TAF: